createdAt,value
2022-10-06T00:00:04.792Z,101855.16
2022-10-06T00:02:35.623Z,101857.09
2022-10-06T00:05:03.411Z,101866.28
2022-10-06T00:07:31.234Z,101878.53
2022-10-06T00:09:59.022Z,101875.78
2022-10-06T00:12:28.296Z,101880.81
2022-10-06T00:14:56.086Z,101890.16
2022-10-06T00:17:23.858Z,101887.25
2022-10-06T00:19:51.671Z,101891.44
2022-10-06T00:22:19.498Z,101898.53
2022-10-06T00:24:47.271Z,101900.78
2022-10-06T00:27:15.047Z,101907.72
2022-10-06T00:29:44.455Z,101909.03
2022-10-06T00:32:12.243Z,101915.94
2022-10-06T00:34:39.946Z,101924.47
2022-10-06T00:37:07.755Z,101931.22
2022-10-06T00:39:35.496Z,101931.72
2022-10-06T00:42:03.303Z,101944.59
2022-10-06T00:44:31.097Z,101935.09
2022-10-06T00:47:00.361Z,101942.66
2022-10-06T00:49:31.895Z,101949.75
2022-10-06T00:52:06.586Z,101956.53
2022-10-06T00:54:37.306Z,101959.88
2022-10-06T00:57:06.234Z,101966.97
2022-10-06T00:59:34.517Z,101962.00
2022-10-06T01:02:10.591Z,101965.84
2022-10-06T01:04:42.305Z,101975.19
2022-10-06T01:07:10.802Z,101973.56
2022-10-06T01:09:39.501Z,101980.66
2022-10-06T01:12:09.666Z,101978.72
2022-10-06T01:14:40.260Z,101992.72
2022-10-06T01:17:15.324Z,101987.06
2022-10-06T01:19:50.542Z,101983.84
2022-10-06T01:22:27.371Z,101993.84
2022-10-06T01:24:55.320Z,101995.78
2022-10-06T01:27:24.762Z,101998.00
2022-10-06T01:29:54.759Z,102002.38
2022-10-06T01:32:24.023Z,102007.69
2022-10-06T01:34:52.047Z,102008.63
2022-10-06T01:37:19.805Z,102004.91
2022-10-06T01:39:48.955Z,102017.13
2022-10-06T01:42:16.761Z,102012.75
2022-10-06T01:44:44.592Z,102021.09
2022-10-06T01:47:12.318Z,102019.63
2022-10-06T01:49:40.346Z,102034.75
2022-10-06T01:52:08.265Z,102026.22
2022-10-06T01:54:36.058Z,102022.53
2022-10-06T01:57:06.402Z,102028.59
2022-10-06T01:59:34.209Z,102032.59
2022-10-06T02:02:02.431Z,102034.84
2022-10-06T02:04:30.400Z,102033.25
2022-10-06T02:06:58.124Z,102034.97
2022-10-06T02:09:25.937Z,102043.34
2022-10-06T02:11:53.659Z,102050.03
2022-10-06T02:14:22.781Z,102047.91
2022-10-06T02:16:50.791Z,102050.16
2022-10-06T02:19:18.538Z,102062.72
2022-10-06T02:21:46.319Z,102063.84
2022-10-06T02:24:14.069Z,102068.81
2022-10-06T02:26:41.797Z,102068.44
2022-10-06T02:29:09.745Z,102082.22
2022-10-06T02:31:38.956Z,102088.34
2022-10-06T02:34:06.798Z,102085.41
2022-10-06T02:36:34.626Z,102079.44
2022-10-06T02:39:02.368Z,102084.09
2022-10-06T02:41:31.013Z,102087.97
2022-10-06T02:43:58.806Z,102098.09
2022-10-06T02:46:27.022Z,102101.09
2022-10-06T02:48:56.141Z,102100.13
2022-10-06T02:51:24.657Z,102103.97
2022-10-06T02:53:52.867Z,102111.66
2022-10-06T02:56:22.366Z,102115.03
2022-10-06T02:58:51.460Z,102125.63
2022-10-06T03:01:21.359Z,102129.16
2022-10-06T03:03:49.173Z,102127.66
2022-10-06T03:06:23.249Z,102128.28
2022-10-06T03:08:51.453Z,102128.91
2022-10-06T03:11:20.379Z,102145.31
2022-10-06T03:13:49.457Z,102145.31
2022-10-06T03:16:18.556Z,102146.94
2022-10-06T03:18:47.003Z,102154.00
2022-10-06T03:21:18.577Z,102153.00
2022-10-06T03:23:47.916Z,102162.78
2022-10-06T03:26:17.613Z,102159.47
2022-10-06T03:28:46.009Z,102161.06
2022-10-06T03:31:14.311Z,102167.66
2022-10-06T03:33:42.173Z,102174.53
2022-10-06T03:36:12.768Z,102171.31
2022-10-06T03:38:42.254Z,102174.34
2022-10-06T03:41:12.008Z,102180.94
2022-10-06T03:43:40.794Z,102198.13
2022-10-06T03:46:09.323Z,102195.72
2022-10-06T03:48:37.343Z,102197.50
2022-10-06T03:51:07.861Z,102200.53
2022-10-06T03:53:36.466Z,102208.63
2022-10-06T03:56:07.403Z,102216.34
2022-10-06T03:58:36.870Z,102228.66
2022-10-06T04:01:06.855Z,102224.63
2022-10-06T04:03:35.874Z,102238.59
2022-10-06T04:06:05.627Z,102237.19
2022-10-06T04:08:34.933Z,102234.44
2022-10-06T04:11:08.218Z,102241.03
2022-10-06T04:13:36.257Z,102241.84
2022-10-06T04:16:15.772Z,102238.38
2022-10-06T04:18:44.999Z,102248.31
2022-10-06T04:21:13.935Z,102252.50
2022-10-06T04:23:42.167Z,102268.72
2022-10-06T04:26:13.191Z,102267.09
2022-10-06T04:28:42.253Z,102278.59
2022-10-06T04:31:15.705Z,102268.28
2022-10-06T04:33:44.079Z,102278.72
2022-10-06T04:36:15.521Z,102285.88
2022-10-06T04:38:43.915Z,102291.94
2022-10-06T04:41:15.002Z,102287.06
2022-10-06T04:43:43.425Z,102290.72
2022-10-06T04:46:37.771Z,102303.34
2022-10-06T04:48:59.580Z,102295.75
2022-10-06T04:51:28.477Z,102304.84
2022-10-06T04:53:56.232Z,102307.88
2022-10-06T04:56:27.313Z,102315.84
2022-10-06T04:58:56.930Z,102323.00
2022-10-06T05:01:27.080Z,102336.72
2022-10-06T05:03:56.917Z,102339.47
2022-10-06T05:06:27.350Z,102337.34
2022-10-06T05:08:56.811Z,102339.34
2022-10-06T05:11:26.690Z,102341.81
2022-10-06T05:13:56.545Z,102346.78
2022-10-06T05:16:26.031Z,102357.69
2022-10-06T05:18:54.055Z,102354.22
2022-10-06T05:21:23.777Z,102356.75
2022-10-06T05:23:51.919Z,102357.00
2022-10-06T05:26:21.882Z,102365.50
2022-10-06T05:28:51.654Z,102372.56
2022-10-06T05:31:21.394Z,102367.47
2022-10-06T05:33:49.694Z,102372.72
2022-10-06T05:36:19.633Z,102376.56
2022-10-06T05:38:48.267Z,102382.59
2022-10-06T05:41:17.865Z,102387.53
2022-10-06T05:43:45.946Z,102394.91
2022-10-06T05:46:17.542Z,102395.50
2022-10-06T05:48:46.814Z,102402.88
2022-10-06T05:51:15.099Z,102410.00
2022-10-06T05:53:43.070Z,102418.78
2022-10-06T05:56:12.829Z,102418.84
2022-10-06T05:58:42.047Z,102422.66
2022-10-06T06:01:11.852Z,102439.03
2022-10-06T06:03:42.361Z,102434.38
2022-10-06T06:06:17.759Z,102436.00
2022-10-06T06:08:46.112Z,102441.66
2022-10-06T06:11:14.227Z,102443.81
2022-10-06T06:13:42.091Z,102446.56
2022-10-06T06:16:14.619Z,102445.75
2022-10-06T06:18:43.895Z,102446.25
2022-10-06T06:21:11.915Z,102455.75
2022-10-06T06:23:41.240Z,102453.63
2022-10-06T06:26:10.812Z,102465.03
2022-10-06T06:28:40.204Z,102467.25
2022-10-06T06:31:10.157Z,102472.72
2022-10-06T06:33:39.600Z,102476.53
2022-10-06T06:36:15.706Z,102477.09
2022-10-06T06:38:44.119Z,102481.41
2022-10-06T06:41:16.561Z,102475.94
2022-10-06T06:43:45.296Z,102486.03
2022-10-06T06:46:15.114Z,102488.22
2022-10-06T06:48:43.221Z,102495.00
2022-10-06T06:51:11.981Z,102501.19
2022-10-06T06:53:41.935Z,102508.50
2022-10-06T06:56:10.511Z,102509.03
2022-10-06T06:58:38.789Z,102515.00
2022-10-06T07:01:08.888Z,102515.81
2022-10-06T07:06:28.183Z,102524.75
2022-10-06T07:08:58.809Z,102530.22
2022-10-06T07:11:28.671Z,102534.03
2022-10-06T07:13:58.823Z,102531.81
2022-10-06T07:16:44.475Z,102538.41
2022-10-06T07:19:30.504Z,102540.53
2022-10-06T07:22:18.409Z,102544.34
2022-10-06T07:25:06.296Z,102550.06
2022-10-06T07:27:36.579Z,102561.66
2022-10-06T07:30:05.093Z,102556.81
2022-10-06T07:32:35.309Z,102566.19
2022-10-06T07:35:03.139Z,102561.56
2022-10-06T07:37:31.471Z,102565.16
2022-10-06T07:40:00.594Z,102574.75
2022-10-06T07:42:28.391Z,102582.69
2022-10-06T07:45:13.450Z,102586.78
2022-10-06T07:47:41.245Z,102588.44
2022-10-06T07:50:13.073Z,102588.50
2022-10-06T07:52:40.862Z,102587.63
2022-10-06T07:55:11.888Z,102593.34
2022-10-06T07:57:39.699Z,102597.91
2022-10-06T08:00:08.408Z,102604.19
2022-10-06T08:02:36.465Z,102603.16
2022-10-06T08:05:05.037Z,102603.78
2022-10-06T08:07:32.821Z,102602.31
2022-10-06T08:10:00.559Z,102612.06
2022-10-06T08:12:37.722Z,102616.09
2022-10-06T08:15:07.760Z,102615.91
2022-10-06T08:17:37.160Z,102614.09
2022-10-06T08:20:05.973Z,102623.13
2022-10-06T08:22:33.955Z,102624.63
2022-10-06T08:25:06.292Z,102614.47
2022-10-06T08:27:38.777Z,102630.09
2022-10-06T08:30:07.994Z,102635.69
2022-10-06T08:32:37.103Z,102635.09
2022-10-06T08:35:05.265Z,102645.91
2022-10-06T08:37:32.972Z,102638.00
2022-10-06T08:40:00.751Z,102644.13
2022-10-06T08:42:38.130Z,102648.16
2022-10-06T08:45:15.715Z,102649.59
2022-10-06T08:47:53.015Z,102652.84
2022-10-06T08:50:22.403Z,102654.44
2022-10-06T08:52:58.075Z,102649.69
2022-10-06T08:55:32.146Z,102647.13
2022-10-06T08:58:14.551Z,102657.25
2022-10-06T09:00:44.025Z,102653.00
2022-10-06T09:03:23.721Z,102661.72
2022-10-06T09:05:53.849Z,102662.78
2022-10-06T09:08:39.772Z,102661.63
2022-10-06T09:11:23.250Z,102668.38
2022-10-06T09:13:59.833Z,102666.88
2022-10-06T09:16:33.480Z,102679.66
2022-10-06T09:19:12.495Z,102682.09
2022-10-06T09:21:45.642Z,102682.13
2022-10-06T09:24:16.579Z,102689.00
2022-10-06T09:26:46.621Z,102695.31
2022-10-06T09:29:15.067Z,102691.53
2022-10-06T09:31:48.919Z,102699.50
2022-10-06T09:34:24.428Z,102701.63
2022-10-06T09:37:01.929Z,102707.81
2022-10-06T09:39:33.435Z,102705.09
2022-10-06T09:42:07.965Z,102704.97
2022-10-06T09:44:48.103Z,102714.69
2022-10-06T09:47:35.787Z,102717.59
2022-10-06T09:50:11.956Z,102718.56
2022-10-06T09:52:39.957Z,102715.69
2022-10-06T09:55:12.939Z,102705.38
2022-10-06T09:57:50.256Z,102709.78
2022-10-06T10:00:28.267Z,102707.88
2022-10-06T10:03:03.662Z,102720.16
2022-10-06T10:05:34.457Z,102720.00
2022-10-06T10:08:03.387Z,102712.88
2022-10-06T10:10:31.640Z,102716.63
2022-10-06T10:13:00.869Z,102716.13
2022-10-06T10:15:33.871Z,102723.41
2022-10-06T10:18:05.261Z,102717.25
2022-10-06T10:20:38.498Z,102720.66
2022-10-06T10:23:27.321Z,102723.25
2022-10-06T10:26:14.617Z,102727.75
2022-10-06T10:29:03.514Z,102723.22
2022-10-06T10:31:41.570Z,102720.31
2022-10-06T10:34:24.192Z,102721.16
2022-10-06T10:36:56.752Z,102721.31
2022-10-06T10:39:39.689Z,102725.19
2022-10-06T10:42:15.828Z,102725.38
2022-10-06T10:44:51.000Z,102732.97
2022-10-06T10:47:25.854Z,102731.34
2022-10-06T10:50:01.352Z,102727.31
2022-10-06T10:52:33.097Z,102733.28
2022-10-06T10:55:16.378Z,102735.88
2022-10-06T10:57:46.055Z,102736.84
2022-10-06T11:00:19.544Z,102741.06
2022-10-06T11:02:47.700Z,102730.84
2022-10-06T11:05:33.383Z,102729.06
2022-10-06T11:08:07.774Z,102728.25
2022-10-06T11:10:43.083Z,102734.09
2022-10-06T11:13:17.336Z,102741.38
2022-10-06T11:16:09.095Z,102737.16
2022-10-06T11:18:48.051Z,102742.00
2022-10-06T11:21:24.059Z,102731.47
2022-10-06T11:23:57.681Z,102737.63
2022-10-06T11:26:41.034Z,102737.16
2022-10-06T11:29:22.586Z,102733.75
2022-10-06T11:32:01.208Z,102735.25
2022-10-06T11:34:29.003Z,102723.38
2022-10-06T11:37:09.385Z,102727.44
2022-10-06T11:39:47.934Z,102735.56
2022-10-06T11:42:25.040Z,102729.53
2022-10-06T11:45:01.261Z,102737.47
2022-10-06T11:47:36.473Z,102729.69
2022-10-06T11:50:33.272Z,102728.72
2022-10-06T11:53:02.445Z,102726.13
2022-10-06T11:55:30.914Z,102734.88
2022-10-06T12:00:58.998Z,102726.13
2022-10-06T12:04:13.058Z,102730.34
2022-10-06T12:07:10.915Z,102719.03
2022-10-06T12:09:52.683Z,102708.03
2022-10-06T12:13:06.775Z,102714.00
2022-10-06T12:19:00.560Z,102709.31
2022-10-06T12:21:47.859Z,102705.44
2022-10-06T12:24:44.787Z,102702.19
2022-10-06T12:27:45.114Z,102698.94
2022-10-06T12:30:22.539Z,102715.63
2022-10-06T12:32:54.540Z,102705.75
2022-10-06T12:35:30.277Z,102707.84
2022-10-06T12:38:02.666Z,102708.34
2022-10-06T12:40:46.746Z,102703.00
2022-10-06T12:43:44.327Z,102701.53
2022-10-06T12:46:22.086Z,102698.63
2022-10-06T12:48:58.409Z,102692.31
2022-10-06T12:54:13.292Z,102695.56
2022-10-06T12:56:43.109Z,102701.53
2022-10-06T12:59:25.142Z,102700.09
2022-10-06T13:01:57.648Z,102704.78
2022-10-06T13:04:40.542Z,102694.25
2022-10-06T13:07:17.604Z,102685.03
2022-10-06T13:09:46.547Z,102698.44
2022-10-06T13:12:38.072Z,102700.91
2022-10-06T13:15:18.989Z,102706.88
2022-10-06T13:17:51.309Z,102691.84
2022-10-06T13:20:27.320Z,102700.75
2022-10-06T13:23:00.942Z,102694.75
2022-10-06T13:25:45.252Z,102688.13
2022-10-06T13:28:30.689Z,102685.06
2022-10-06T13:30:59.990Z,102676.78
2022-10-06T13:33:33.671Z,102686.66
2022-10-06T13:36:03.066Z,102674.84
2022-10-06T13:38:34.939Z,102680.00
2022-10-06T13:41:21.167Z,102668.03
2022-10-06T13:43:52.786Z,102669.47
2022-10-06T13:46:23.250Z,102673.66
2022-10-06T13:48:54.931Z,102676.25
2022-10-06T13:51:25.896Z,102678.66
2022-10-06T13:53:54.390Z,102681.44
2022-10-06T13:58:57.463Z,102669.69
2022-10-06T14:01:32.399Z,102681.84
2022-10-06T14:04:14.768Z,102671.97
2022-10-06T14:06:49.333Z,102680.06
2022-10-06T14:09:23.821Z,102675.97
2022-10-06T14:11:52.468Z,102672.09
2022-10-06T14:14:20.484Z,102671.41
2022-10-06T14:16:51.607Z,102657.13
2022-10-06T14:19:40.282Z,102659.97
2022-10-06T14:22:30.331Z,102666.22
2022-10-06T14:24:58.179Z,102665.38
2022-10-06T14:27:25.903Z,102670.09
2022-10-06T14:29:53.945Z,102659.53
2022-10-06T14:32:21.699Z,102660.00
2022-10-06T14:34:50.820Z,102654.03
2022-10-06T14:37:18.541Z,102659.53
2022-10-06T14:39:46.832Z,102657.59
2022-10-06T14:42:15.810Z,102668.28
2022-10-06T14:44:44.814Z,102660.66
2022-10-06T14:47:12.611Z,102668.13
2022-10-06T14:49:40.847Z,102663.63
2022-10-06T14:52:10.633Z,102657.44
2022-10-06T14:54:38.707Z,102661.81
2022-10-06T14:57:06.467Z,102667.03
2022-10-06T14:59:34.220Z,102668.38
2022-10-06T15:02:03.092Z,102659.28
2022-10-06T15:04:31.434Z,102660.78
2022-10-06T15:07:13.232Z,102655.25
2022-10-06T15:09:42.733Z,102649.75
2022-10-06T15:12:10.577Z,102658.38
2022-10-06T15:14:39.924Z,102653.84
2022-10-06T15:17:09.272Z,102650.78
2022-10-06T15:19:37.182Z,102644.13
2022-10-06T15:22:09.985Z,102646.91
2022-10-06T15:24:37.762Z,102643.44
2022-10-06T15:27:26.567Z,102645.56
2022-10-06T15:29:54.405Z,102651.25
2022-10-06T15:32:22.478Z,102647.69
2022-10-06T15:34:52.537Z,102647.56
2022-10-06T15:37:20.385Z,102646.75
2022-10-06T15:39:48.138Z,102651.94
2022-10-06T15:42:22.708Z,102645.16
2022-10-06T15:44:50.902Z,102640.63
2022-10-06T15:47:18.774Z,102646.00
2022-10-06T15:49:47.064Z,102656.72
2022-10-06T15:52:14.854Z,102646.53
2022-10-06T15:54:43.957Z,102644.88
2022-10-06T15:57:18.118Z,102642.47
2022-10-06T15:59:50.193Z,102647.03
2022-10-06T16:02:20.013Z,102642.34
2022-10-06T16:05:16.242Z,102645.56
2022-10-06T16:07:44.040Z,102648.00
2022-10-06T16:10:12.164Z,102646.56
2022-10-06T16:12:39.983Z,102656.28
2022-10-06T16:15:10.301Z,102644.13
2022-10-06T16:17:38.063Z,102645.44
2022-10-06T16:20:06.496Z,102642.84
2022-10-06T16:22:34.329Z,102646.56
2022-10-06T16:25:02.105Z,102648.81
2022-10-06T16:27:33.290Z,102652.72
2022-10-06T16:30:01.463Z,102651.34
2022-10-06T16:32:30.633Z,102652.81
2022-10-06T16:34:58.399Z,102648.28
2022-10-06T16:37:26.177Z,102645.84
2022-10-06T16:39:54.006Z,102654.28
2022-10-06T16:42:21.898Z,102650.69
2022-10-06T16:44:49.728Z,102653.63
2022-10-06T16:47:17.540Z,102644.84
2022-10-06T16:49:46.716Z,102651.50
2022-10-06T16:52:14.558Z,102642.59
2022-10-06T16:54:42.330Z,102651.28
2022-10-06T16:57:10.097Z,102655.16
2022-10-06T16:59:37.891Z,102651.28
2022-10-06T17:02:05.684Z,102663.13
2022-10-06T17:04:33.499Z,102661.31
2022-10-06T17:07:02.658Z,102663.25
2022-10-06T17:09:30.967Z,102658.81
2022-10-06T17:12:00.593Z,102661.72
2022-10-06T17:14:30.372Z,102655.06
2022-10-06T17:16:58.978Z,102664.72
2022-10-06T17:19:28.498Z,102656.09
2022-10-06T17:21:59.488Z,102657.47
2022-10-06T17:24:31.219Z,102659.38
2022-10-06T17:26:59.660Z,102664.50
2022-10-06T17:29:27.800Z,102655.56
2022-10-06T17:31:58.722Z,102664.75
2022-10-06T17:34:31.874Z,102659.72
2022-10-06T17:37:01.819Z,102665.63
2022-10-06T17:39:31.164Z,102663.31
2022-10-06T17:41:58.961Z,102661.00
2022-10-06T17:44:28.510Z,102665.47
2022-10-06T17:46:58.251Z,102667.72
2022-10-06T17:49:26.499Z,102664.28
2022-10-06T17:51:55.919Z,102659.25
2022-10-06T17:54:26.821Z,102665.97
2022-10-06T17:56:59.119Z,102659.28
2022-10-06T17:59:30.277Z,102666.00
2022-10-06T18:02:00.727Z,102663.66
2022-10-06T18:04:29.031Z,102663.78
2022-10-06T18:06:57.420Z,102669.34
2022-10-06T18:09:25.303Z,102660.16
2022-10-06T18:11:56.470Z,102665.22
2022-10-06T18:14:27.546Z,102667.56
2022-10-06T18:16:57.810Z,102666.84
2022-10-06T18:19:29.735Z,102670.50
2022-10-06T18:22:00.061Z,102671.72
2022-10-06T18:24:30.423Z,102675.97
2022-10-06T18:26:59.997Z,102671.72
2022-10-06T18:29:32.781Z,102666.63
2022-10-06T18:37:37.103Z,102669.97
2022-10-06T18:40:05.946Z,102662.97
2022-10-06T18:42:33.919Z,102669.38
2022-10-06T18:45:20.620Z,102665.59
2022-10-06T18:48:05.605Z,102664.34
2022-10-06T18:50:34.218Z,102665.75
2022-10-06T18:53:04.172Z,102672.84
2022-10-06T18:55:35.128Z,102670.41
2022-10-06T18:58:03.219Z,102673.44
2022-10-06T19:00:32.400Z,102670.19
2022-10-06T19:03:00.171Z,102673.00
2022-10-06T19:05:27.959Z,102672.81
2022-10-06T19:07:55.796Z,102670.38
2022-10-06T19:10:23.570Z,102676.44
2022-10-06T19:12:51.363Z,102677.53
2022-10-06T19:15:21.146Z,102679.28
2022-10-06T19:17:50.781Z,102679.34
2022-10-06T19:20:19.152Z,102677.50
2022-10-06T19:22:47.544Z,102680.03
2022-10-06T19:25:18.646Z,102684.97
2022-10-06T19:27:46.680Z,102677.38
2022-10-06T19:30:14.555Z,102676.31
2022-10-06T19:32:42.350Z,102679.66
2022-10-06T19:35:11.499Z,102673.69
2022-10-06T19:37:40.008Z,102679.22
2022-10-06T19:40:11.161Z,102675.44
2022-10-06T19:42:51.082Z,102681.00
2022-10-06T19:45:20.707Z,102681.88
2022-10-06T19:47:48.652Z,102676.78
2022-10-06T19:50:18.242Z,102677.97
2022-10-06T19:52:46.426Z,102673.47
2022-10-06T19:55:14.698Z,102673.81
2022-10-06T19:57:43.106Z,102678.22
2022-10-06T20:00:12.423Z,102673.09
2022-10-06T20:02:42.884Z,102674.00
2022-10-06T20:05:11.797Z,102679.50
2022-10-06T20:07:41.344Z,102685.31
2022-10-06T20:10:09.745Z,102680.22
2022-10-06T20:12:38.384Z,102677.00
2022-10-06T20:15:07.318Z,102673.25
2022-10-06T20:17:36.689Z,102676.03
2022-10-06T20:20:04.781Z,102678.81
2022-10-06T20:22:32.773Z,102678.88
2022-10-06T20:25:02.428Z,102678.34
2022-10-06T20:27:30.264Z,102677.31
2022-10-06T20:29:58.386Z,102681.72
2022-10-06T20:32:26.199Z,102686.94
2022-10-06T20:34:54.047Z,102683.97
2022-10-06T20:37:21.812Z,102687.28
2022-10-06T20:40:06.932Z,102682.38
2022-10-06T20:42:36.061Z,102678.06
2022-10-06T20:45:04.209Z,102682.50
2022-10-06T20:47:32.018Z,102677.06
2022-10-06T20:49:59.846Z,102677.13
2022-10-06T20:52:27.645Z,102674.16
2022-10-06T20:54:55.436Z,102670.38
2022-10-06T20:57:23.556Z,102670.13
2022-10-06T20:59:52.755Z,102677.78
2022-10-06T21:02:20.571Z,102677.81
2022-10-06T21:04:48.364Z,102672.94
2022-10-06T21:07:16.163Z,102667.53
2022-10-06T21:09:46.493Z,102664.53
2022-10-06T21:12:16.602Z,102667.84
2022-10-06T21:14:44.374Z,102666.75
2022-10-06T21:17:13.458Z,102668.16
2022-10-06T21:19:41.165Z,102662.44
2022-10-06T21:22:08.936Z,102661.69
2022-10-06T21:24:36.716Z,102664.97
2022-10-06T21:27:04.639Z,102654.63
2022-10-06T21:29:32.377Z,102657.91
2022-10-06T21:32:00.411Z,102652.75
2022-10-06T21:34:29.533Z,102654.13
2022-10-06T21:36:57.824Z,102647.63
2022-10-06T21:39:25.590Z,102647.38
2022-10-06T21:41:53.340Z,102649.84
2022-10-06T21:44:21.015Z,102646.88
2022-10-06T21:46:50.666Z,102647.13
2022-10-06T21:49:19.821Z,102640.66
2022-10-06T21:51:51.227Z,102634.69
2022-10-06T21:54:19.722Z,102635.22
2022-10-06T21:56:48.073Z,102634.16
2022-10-06T21:59:15.947Z,102636.34
2022-10-06T22:01:47.470Z,102629.56
2022-10-06T22:04:16.373Z,102624.41
2022-10-06T22:06:49.808Z,102623.81
2022-10-06T22:09:20.832Z,102620.56
2022-10-06T22:11:48.655Z,102616.22
2022-10-06T22:14:18.545Z,102615.69
2022-10-06T22:16:46.872Z,102610.22
2022-10-06T22:19:16.255Z,102613.25
2022-10-06T22:21:45.190Z,102612.44
2022-10-06T22:24:14.656Z,102606.97
2022-10-06T22:26:44.655Z,102612.44
2022-10-06T22:29:16.155Z,102612.44
2022-10-06T22:31:46.173Z,102610.81
2022-10-06T22:34:15.961Z,102608.38
2022-10-06T22:36:43.751Z,102601.56
2022-10-06T22:39:11.901Z,102604.28
2022-10-06T22:41:39.668Z,102594.50
2022-10-06T22:44:08.751Z,102590.16
2022-10-06T22:46:38.880Z,102593.97
2022-10-06T22:49:07.054Z,102585.56
2022-10-06T22:51:35.106Z,102591.25
2022-10-06T22:54:03.078Z,102585.00
2022-10-06T22:56:32.901Z,102582.56
2022-10-06T22:59:01.088Z,102584.78
2022-10-06T23:01:30.697Z,102581.50
2022-10-06T23:03:58.676Z,102578.25
2022-10-06T23:06:29.617Z,102571.19
2022-10-06T23:08:57.598Z,102563.59
2022-10-06T23:11:25.320Z,102564.16
2022-10-06T23:13:53.253Z,102562.28
2022-10-06T23:16:21.911Z,102561.22
2022-10-06T23:18:51.312Z,102556.63
2022-10-06T23:21:21.849Z,102555.53
2022-10-06T23:23:51.483Z,102561.81
2022-10-06T23:26:20.388Z,102565.38
2022-10-06T23:28:52.676Z,102555.03
2022-10-06T23:31:20.487Z,102553.97
2022-10-06T23:33:48.289Z,102558.31
2022-10-06T23:36:17.774Z,102553.44
2022-10-06T23:38:45.855Z,102542.28
2022-10-06T23:41:14.503Z,102543.66
2022-10-06T23:43:42.236Z,102545.84
2022-10-06T23:46:10.211Z,102546.38
2022-10-06T23:48:38.144Z,102542.31
2022-10-06T23:51:08.605Z,102545.34
2022-10-06T23:53:37.909Z,102539.63
2022-10-06T23:56:06.799Z,102541.00
2022-10-06T23:58:34.931Z,102537.72
